sensor_id;sensor_type;location;lat;lon;timestamp;temperature;humidity
54168;DHT22;68429;50.958;3.592;2023-03-19T00:01:30;9.80;99.90
54168;DHT22;68429;50.958;3.592;2023-03-19T00:03:55;9.80;99.90
54168;DHT22;68429;50.958;3.592;2023-03-19T00:06:21;9.80;99.90
54168;DHT22;68429;50.958;3.592;2023-03-19T00:08:47;9.60;99.90
54168;DHT22;68429;50.958;3.592;2023-03-19T00:11:13;9.60;99.90
54168;DHT22;68429;50.958;3.592;2023-03-19T00:13:39;9.50;99.90
54168;DHT22;68429;50.958;3.592;2023-03-19T00:16:05;9.50;99.90
54168;DHT22;68429;50.958;3.592;2023-03-19T00:18:31;9.40;99.90
54168;DHT22;68429;50.958;3.592;2023-03-19T00:20:58;9.40;99.90
54168;DHT22;68429;50.958;3.592;2023-03-19T00:23:23;9.30;99.90
54168;DHT22;68429;50.958;3.592;2023-03-19T00:25:49;9.40;99.90
54168;DHT22;68429;50.958;3.592;2023-03-19T00:28:15;9.40;99.90
54168;DHT22;68429;50.958;3.592;2023-03-19T00:30:41;9.40;99.90
54168;DHT22;68429;50.958;3.592;2023-03-19T00:33:09;9.40;99.90
54168;DHT22;68429;50.958;3.592;2023-03-19T00:35:35;9.30;99.90
54168;DHT22;68429;50.958;3.592;2023-03-19T00:38:00;9.20;99.90
54168;DHT22;68429;50.958;3.592;2023-03-19T00:40:26;9.30;99.90
54168;DHT22;68429;50.958;3.592;2023-03-19T00:42:52;9.20;99.90
54168;DHT22;68429;50.958;3.592;2023-03-19T00:45:18;9.20;99.90
54168;DHT22;68429;50.958;3.592;2023-03-19T00:47:43;9.20;99.90
54168;DHT22;68429;50.958;3.592;2023-03-19T00:50:09;9.10;99.90
54168;DHT22;68429;50.958;3.592;2023-03-19T00:52:36;9.00;99.90
54168;DHT22;68429;50.958;3.592;2023-03-19T00:55:01;9.00;99.90
54168;DHT22;68429;50.958;3.592;2023-03-19T00:57:27;8.90;99.90
54168;DHT22;68429;50.958;3.592;2023-03-19T00:59:52;8.90;99.90
54168;DHT22;68429;50.958;3.592;2023-03-19T01:02:18;8.90;99.90
54168;DHT22;68429;50.958;3.592;2023-03-19T01:04:47;8.90;99.90
54168;DHT22;68429;50.958;3.592;2023-03-19T01:07:13;8.80;99.90
54168;DHT22;68429;50.958;3.592;2023-03-19T01:09:38;8.80;99.90
54168;DHT22;68429;50.958;3.592;2023-03-19T01:12:06;8.80;99.90
54168;DHT22;68429;50.958;3.592;2023-03-19T01:14:32;8.80;99.90
54168;DHT22;68429;50.958;3.592;2023-03-19T01:16:59;8.70;99.90
54168;DHT22;68429;50.958;3.592;2023-03-19T01:19:25;8.70;99.90
54168;DHT22;68429;50.958;3.592;2023-03-19T01:21:51;8.60;99.90
54168;DHT22;68429;50.958;3.592;2023-03-19T01:24:17;8.60;99.90
54168;DHT22;68429;50.958;3.592;2023-03-19T01:26:43;8.60;99.90
54168;DHT22;68429;50.958;3.592;2023-03-19T01:29:08;8.60;99.90
54168;DHT22;68429;50.958;3.592;2023-03-19T01:31:35;8.60;99.90
54168;DHT22;68429;50.958;3.592;2023-03-19T01:34:02;8.40;99.90
54168;DHT22;68429;50.958;3.592;2023-03-19T01:36:28;8.40;99.90
54168;DHT22;68429;50.958;3.592;2023-03-19T01:38:54;8.30;99.90
54168;DHT22;68429;50.958;3.592;2023-03-19T01:41:21;8.40;99.90
54168;DHT22;68429;50.958;3.592;2023-03-19T01:43:48;8.40;99.90
54168;DHT22;68429;50.958;3.592;2023-03-19T01:48:50;8.40;99.90
54168;DHT22;68429;50.958;3.592;2023-03-19T01:51:20;8.60;99.90
54168;DHT22;68429;50.958;3.592;2023-03-19T01:53:51;8.60;99.90
54168;DHT22;68429;50.958;3.592;2023-03-19T01:56:19;8.70;99.90
54168;DHT22;68429;50.958;3.592;2023-03-19T01:58:46;8.70;99.90
54168;DHT22;68429;50.958;3.592;2023-03-19T02:01:13;8.70;99.90
54168;DHT22;68429;50.958;3.592;2023-03-19T02:03:39;8.60;99.90
54168;DHT22;68429;50.958;3.592;2023-03-19T02:06:07;8.60;99.90
54168;DHT22;68429;50.958;3.592;2023-03-19T02:08:34;8.50;99.90
54168;DHT22;68429;50.958;3.592;2023-03-19T02:11:00;8.50;99.90
54168;DHT22;68429;50.958;3.592;2023-03-19T02:13:27;8.40;99.90
54168;DHT22;68429;50.958;3.592;2023-03-19T02:15:53;8.50;99.90
54168;DHT22;68429;50.958;3.592;2023-03-19T02:18:20;8.50;99.90
54168;DHT22;68429;50.958;3.592;2023-03-19T02:21:05;8.60;99.90
54168;DHT22;68429;50.958;3.592;2023-03-19T02:26:21;8.50;99.90
54168;DHT22;68429;50.958;3.592;2023-03-19T02:28:49;8.30;99.90
54168;DHT22;68429;50.958;3.592;2023-03-19T02:31:16;8.20;99.90
54168;DHT22;68429;50.958;3.592;2023-03-19T02:33:43;8.10;99.90
54168;DHT22;68429;50.958;3.592;2023-03-19T02:36:15;8.00;99.90
54168;DHT22;68429;50.958;3.592;2023-03-19T02:38:43;8.00;99.90
54168;DHT22;68429;50.958;3.592;2023-03-19T02:41:09;7.90;99.90
54168;DHT22;68429;50.958;3.592;2023-03-19T02:43:37;7.90;99.90
54168;DHT22;68429;50.958;3.592;2023-03-19T02:46:07;8.00;99.90
54168;DHT22;68429;50.958;3.592;2023-03-19T02:48:34;8.00;99.90
54168;DHT22;68429;50.958;3.592;2023-03-19T02:51:01;8.00;99.90
54168;DHT22;68429;50.958;3.592;2023-03-19T02:53:26;7.90;99.90
54168;DHT22;68429;50.958;3.592;2023-03-19T02:55:52;7.80;99.90
54168;DHT22;68429;50.958;3.592;2023-03-19T02:58:18;7.80;99.90
54168;DHT22;68429;50.958;3.592;2023-03-19T03:00:44;7.70;99.90
54168;DHT22;68429;50.958;3.592;2023-03-19T03:03:10;7.60;99.90
54168;DHT22;68429;50.958;3.592;2023-03-19T03:05:36;7.60;99.90
54168;DHT22;68429;50.958;3.592;2023-03-19T03:08:02;7.70;99.90
54168;DHT22;68429;50.958;3.592;2023-03-19T03:10:30;7.80;99.90
54168;DHT22;68429;50.958;3.592;2023-03-19T03:12:56;8.00;99.90
54168;DHT22;68429;50.958;3.592;2023-03-19T03:15:21;7.90;99.90
54168;DHT22;68429;50.958;3.592;2023-03-19T03:17:47;8.00;99.90
54168;DHT22;68429;50.958;3.592;2023-03-19T03:20:14;7.80;99.90
54168;DHT22;68429;50.958;3.592;2023-03-19T03:22:42;7.80;99.90
54168;DHT22;68429;50.958;3.592;2023-03-19T03:25:09;7.80;99.90
54168;DHT22;68429;50.958;3.592;2023-03-19T03:27:35;7.70;99.90
54168;DHT22;68429;50.958;3.592;2023-03-19T03:30:03;7.70;99.90
54168;DHT22;68429;50.958;3.592;2023-03-19T03:32:29;7.60;99.90
54168;DHT22;68429;50.958;3.592;2023-03-19T03:34:55;7.60;99.90
54168;DHT22;68429;50.958;3.592;2023-03-19T03:37:21;7.60;99.90
54168;DHT22;68429;50.958;3.592;2023-03-19T03:39:47;7.60;99.90
54168;DHT22;68429;50.958;3.592;2023-03-19T03:42:12;7.60;99.90
54168;DHT22;68429;50.958;3.592;2023-03-19T03:44:38;7.60;99.90
54168;DHT22;68429;50.958;3.592;2023-03-19T03:47:04;7.60;99.90
54168;DHT22;68429;50.958;3.592;2023-03-19T03:49:31;7.70;99.90
54168;DHT22;68429;50.958;3.592;2023-03-19T03:51:56;7.80;99.90
54168;DHT22;68429;50.958;3.592;2023-03-19T03:54:22;7.80;99.90
54168;DHT22;68429;50.958;3.592;2023-03-19T03:56:48;7.90;99.90
54168;DHT22;68429;50.958;3.592;2023-03-19T03:59:15;7.90;99.90
54168;DHT22;68429;50.958;3.592;2023-03-19T04:01:41;7.90;99.90
54168;DHT22;68429;50.958;3.592;2023-03-19T04:04:06;8.10;99.90
54168;DHT22;68429;50.958;3.592;2023-03-19T04:06:32;8.00;99.90
54168;DHT22;68429;50.958;3.592;2023-03-19T04:08:59;8.00;99.90
54168;DHT22;68429;50.958;3.592;2023-03-19T04:11:25;8.10;99.90
54168;DHT22;68429;50.958;3.592;2023-03-19T04:13:53;8.10;99.90
54168;DHT22;68429;50.958;3.592;2023-03-19T04:16:18;8.10;99.90
54168;DHT22;68429;50.958;3.592;2023-03-19T04:18:44;8.00;99.90
54168;DHT22;68429;50.958;3.592;2023-03-19T04:21:09;8.00;99.90
54168;DHT22;68429;50.958;3.592;2023-03-19T04:23:35;8.00;99.90
54168;DHT22;68429;50.958;3.592;2023-03-19T04:26:03;7.90;99.90
54168;DHT22;68429;50.958;3.592;2023-03-19T04:28:29;7.80;99.90
54168;DHT22;68429;50.958;3.592;2023-03-19T04:31:03;7.90;99.90
54168;DHT22;68429;50.958;3.592;2023-03-19T04:33:29;7.90;99.90
54168;DHT22;68429;50.958;3.592;2023-03-19T04:35:56;8.00;99.90
54168;DHT22;68429;50.958;3.592;2023-03-19T04:38:23;8.10;99.90
54168;DHT22;68429;50.958;3.592;2023-03-19T04:40:51;7.90;99.90
54168;DHT22;68429;50.958;3.592;2023-03-19T04:43:16;7.90;99.90
54168;DHT22;68429;50.958;3.592;2023-03-19T04:45:42;7.80;99.90
54168;DHT22;68429;50.958;3.592;2023-03-19T04:48:08;7.80;99.90
54168;DHT22;68429;50.958;3.592;2023-03-19T04:50:33;7.80;99.90
54168;DHT22;68429;50.958;3.592;2023-03-19T04:52:59;7.80;99.90
54168;DHT22;68429;50.958;3.592;2023-03-19T04:55:25;7.80;99.90
54168;DHT22;68429;50.958;3.592;2023-03-19T04:57:51;8.00;99.90
54168;DHT22;68429;50.958;3.592;2023-03-19T05:00:17;8.10;99.90
54168;DHT22;68429;50.958;3.592;2023-03-19T05:02:43;8.00;99.90
54168;DHT22;68429;50.958;3.592;2023-03-19T05:05:09;8.00;99.90
54168;DHT22;68429;50.958;3.592;2023-03-19T05:07:38;8.00;99.90
54168;DHT22;68429;50.958;3.592;2023-03-19T05:10:04;8.00;99.90
54168;DHT22;68429;50.958;3.592;2023-03-19T05:12:30;8.00;99.90
54168;DHT22;68429;50.958;3.592;2023-03-19T05:14:56;8.00;99.90
54168;DHT22;68429;50.958;3.592;2023-03-19T05:17:22;8.10;99.90
54168;DHT22;68429;50.958;3.592;2023-03-19T05:19:48;8.20;99.90
54168;DHT22;68429;50.958;3.592;2023-03-19T05:22:13;8.20;99.90
54168;DHT22;68429;50.958;3.592;2023-03-19T05:24:39;8.20;99.90
54168;DHT22;68429;50.958;3.592;2023-03-19T05:27:05;8.30;99.90
54168;DHT22;68429;50.958;3.592;2023-03-19T05:29:32;8.30;99.90
54168;DHT22;68429;50.958;3.592;2023-03-19T05:31:57;8.30;99.90
54168;DHT22;68429;50.958;3.592;2023-03-19T05:34:24;8.30;99.90
54168;DHT22;68429;50.958;3.592;2023-03-19T05:36:51;8.40;99.90
54168;DHT22;68429;50.958;3.592;2023-03-19T05:39:17;8.40;99.90
54168;DHT22;68429;50.958;3.592;2023-03-19T05:41:42;8.40;99.90
54168;DHT22;68429;50.958;3.592;2023-03-19T05:44:08;8.40;99.90
54168;DHT22;68429;50.958;3.592;2023-03-19T05:46:33;8.40;99.90
54168;DHT22;68429;50.958;3.592;2023-03-19T05:48:59;8.50;99.90
54168;DHT22;68429;50.958;3.592;2023-03-19T05:51:25;8.50;99.90
54168;DHT22;68429;50.958;3.592;2023-03-19T05:53:50;8.60;99.90
54168;DHT22;68429;50.958;3.592;2023-03-19T05:56:16;8.50;99.90
54168;DHT22;68429;50.958;3.592;2023-03-19T05:58:42;8.50;99.90
54168;DHT22;68429;50.958;3.592;2023-03-19T06:01:07;8.50;99.90
54168;DHT22;68429;50.958;3.592;2023-03-19T06:03:33;8.70;99.90
54168;DHT22;68429;50.958;3.592;2023-03-19T06:05:59;8.60;99.90
54168;DHT22;68429;50.958;3.592;2023-03-19T06:08:25;8.60;99.90
54168;DHT22;68429;50.958;3.592;2023-03-19T06:10:52;8.60;99.90
54168;DHT22;68429;50.958;3.592;2023-03-19T06:13:17;8.50;99.90
54168;DHT22;68429;50.958;3.592;2023-03-19T06:15:43;8.60;99.90
54168;DHT22;68429;50.958;3.592;2023-03-19T06:18:09;8.60;99.90
54168;DHT22;68429;50.958;3.592;2023-03-19T06:20:35;8.70;99.90
54168;DHT22;68429;50.958;3.592;2023-03-19T06:23:01;8.70;99.90
54168;DHT22;68429;50.958;3.592;2023-03-19T06:25:26;8.70;99.90
54168;DHT22;68429;50.958;3.592;2023-03-19T06:27:52;8.70;99.90
54168;DHT22;68429;50.958;3.592;2023-03-19T06:30:18;8.70;99.90
54168;DHT22;68429;50.958;3.592;2023-03-19T06:32:43;8.70;99.90
54168;DHT22;68429;50.958;3.592;2023-03-19T06:35:09;8.70;99.90
54168;DHT22;68429;50.958;3.592;2023-03-19T06:37:35;8.80;99.90
54168;DHT22;68429;50.958;3.592;2023-03-19T06:40:02;9.00;99.90
54168;DHT22;68429;50.958;3.592;2023-03-19T06:42:29;9.20;99.90
54168;DHT22;68429;50.958;3.592;2023-03-19T06:44:55;9.30;99.90
54168;DHT22;68429;50.958;3.592;2023-03-19T06:47:20;9.40;99.90
54168;DHT22;68429;50.958;3.592;2023-03-19T06:49:46;9.50;99.90
54168;DHT22;68429;50.958;3.592;2023-03-19T06:52:12;9.30;99.90
54168;DHT22;68429;50.958;3.592;2023-03-19T06:54:38;9.30;99.90
54168;DHT22;68429;50.958;3.592;2023-03-19T06:57:04;9.20;99.90
54168;DHT22;68429;50.958;3.592;2023-03-19T06:59:30;9.40;99.90
54168;DHT22;68429;50.958;3.592;2023-03-19T07:01:55;9.20;99.90
54168;DHT22;68429;50.958;3.592;2023-03-19T07:04:21;9.20;99.90
54168;DHT22;68429;50.958;3.592;2023-03-19T07:06:47;9.20;99.90
54168;DHT22;68429;50.958;3.592;2023-03-19T07:09:13;9.30;99.90
54168;DHT22;68429;50.958;3.592;2023-03-19T07:11:38;9.30;99.90
54168;DHT22;68429;50.958;3.592;2023-03-19T07:14:04;9.30;99.90
54168;DHT22;68429;50.958;3.592;2023-03-19T07:16:30;9.50;99.90
54168;DHT22;68429;50.958;3.592;2023-03-19T07:18:56;9.60;99.90
54168;DHT22;68429;50.958;3.592;2023-03-19T07:21:22;9.50;99.90
54168;DHT22;68429;50.958;3.592;2023-03-19T07:23:47;9.50;99.90
54168;DHT22;68429;50.958;3.592;2023-03-19T07:26:15;9.40;99.90
54168;DHT22;68429;50.958;3.592;2023-03-19T07:28:41;9.50;99.90
54168;DHT22;68429;50.958;3.592;2023-03-19T07:31:07;9.40;99.90
54168;DHT22;68429;50.958;3.592;2023-03-19T07:33:32;9.40;99.90
54168;DHT22;68429;50.958;3.592;2023-03-19T07:35:58;9.40;99.90
54168;DHT22;68429;50.958;3.592;2023-03-19T07:38:24;9.50;99.90
54168;DHT22;68429;50.958;3.592;2023-03-19T07:40:50;9.40;99.90
54168;DHT22;68429;50.958;3.592;2023-03-19T07:43:16;9.50;99.90
54168;DHT22;68429;50.958;3.592;2023-03-19T07:45:41;9.70;99.90
54168;DHT22;68429;50.958;3.592;2023-03-19T07:48:07;9.80;99.90
54168;DHT22;68429;50.958;3.592;2023-03-19T07:50:33;9.70;99.90
54168;DHT22;68429;50.958;3.592;2023-03-19T07:52:59;9.60;99.90
54168;DHT22;68429;50.958;3.592;2023-03-19T07:55:25;9.50;99.90
54168;DHT22;68429;50.958;3.592;2023-03-19T07:57:51;9.50;99.90
54168;DHT22;68429;50.958;3.592;2023-03-19T08:00:17;9.60;99.90
54168;DHT22;68429;50.958;3.592;2023-03-19T08:02:43;9.50;99.90
54168;DHT22;68429;50.958;3.592;2023-03-19T08:05:09;9.60;99.90
54168;DHT22;68429;50.958;3.592;2023-03-19T08:07:35;9.60;99.90
54168;DHT22;68429;50.958;3.592;2023-03-19T08:10:03;9.70;99.90
54168;DHT22;68429;50.958;3.592;2023-03-19T08:12:29;9.90;99.90
54168;DHT22;68429;50.958;3.592;2023-03-19T08:14:56;10.00;99.90
54168;DHT22;68429;50.958;3.592;2023-03-19T08:17:22;10.20;99.90
54168;DHT22;68429;50.958;3.592;2023-03-19T08:19:47;10.20;99.90
54168;DHT22;68429;50.958;3.592;2023-03-19T08:22:13;10.20;99.90
54168;DHT22;68429;50.958;3.592;2023-03-19T08:24:39;10.20;99.90
54168;DHT22;68429;50.958;3.592;2023-03-19T08:27:04;10.40;99.90
54168;DHT22;68429;50.958;3.592;2023-03-19T08:29:31;10.20;99.90
54168;DHT22;68429;50.958;3.592;2023-03-19T08:31:56;10.20;99.90
54168;DHT22;68429;50.958;3.592;2023-03-19T08:34:23;10.30;99.90
54168;DHT22;68429;50.958;3.592;2023-03-19T08:36:49;10.30;99.90
54168;DHT22;68429;50.958;3.592;2023-03-19T08:39:14;10.20;99.90
54168;DHT22;68429;50.958;3.592;2023-03-19T08:41:40;10.20;99.90
54168;DHT22;68429;50.958;3.592;2023-03-19T08:44:06;10.20;99.90
54168;DHT22;68429;50.958;3.592;2023-03-19T08:46:32;10.40;99.90
54168;DHT22;68429;50.958;3.592;2023-03-19T08:48:58;10.50;99.90
54168;DHT22;68429;50.958;3.592;2023-03-19T08:51:24;10.60;99.90
54168;DHT22;68429;50.958;3.592;2023-03-19T08:53:51;10.70;99.90
54168;DHT22;68429;50.958;3.592;2023-03-19T08:56:17;10.90;99.90
54168;DHT22;68429;50.958;3.592;2023-03-19T08:58:42;10.80;99.90
54168;DHT22;68429;50.958;3.592;2023-03-19T09:01:10;10.60;99.90
54168;DHT22;68429;50.958;3.592;2023-03-19T09:03:38;10.70;99.90
54168;DHT22;68429;50.958;3.592;2023-03-19T09:06:06;10.60;99.90
54168;DHT22;68429;50.958;3.592;2023-03-19T09:08:32;10.60;99.90
54168;DHT22;68429;50.958;3.592;2023-03-19T09:10:59;10.60;99.90
54168;DHT22;68429;50.958;3.592;2023-03-19T09:13:24;10.60;99.90
54168;DHT22;68429;50.958;3.592;2023-03-19T09:15:51;10.40;99.90
54168;DHT22;68429;50.958;3.592;2023-03-19T09:18:17;10.30;99.90
54168;DHT22;68429;50.958;3.592;2023-03-19T09:20:48;10.50;99.90
54168;DHT22;68429;50.958;3.592;2023-03-19T09:23:13;10.40;99.90
54168;DHT22;68429;50.958;3.592;2023-03-19T09:25:39;10.40;99.90
54168;DHT22;68429;50.958;3.592;2023-03-19T09:28:05;10.30;99.90
54168;DHT22;68429;50.958;3.592;2023-03-19T09:30:31;10.30;99.90
54168;DHT22;68429;50.958;3.592;2023-03-19T09:32:57;10.30;99.90
54168;DHT22;68429;50.958;3.592;2023-03-19T09:35:22;10.50;99.90
54168;DHT22;68429;50.958;3.592;2023-03-19T09:37:49;10.50;99.90
54168;DHT22;68429;50.958;3.592;2023-03-19T09:40:27;10.40;99.90
54168;DHT22;68429;50.958;3.592;2023-03-19T09:45:54;10.30;99.90
54168;DHT22;68429;50.958;3.592;2023-03-19T09:48:39;10.30;99.90
54168;DHT22;68429;50.958;3.592;2023-03-19T09:51:12;10.30;99.90
54168;DHT22;68429;50.958;3.592;2023-03-19T09:53:52;10.80;99.90
54168;DHT22;68429;50.958;3.592;2023-03-19T09:56:21;12.00;99.90
54168;DHT22;68429;50.958;3.592;2023-03-19T09:58:47;13.20;99.90
54168;DHT22;68429;50.958;3.592;2023-03-19T10:01:23;14.30;99.90
54168;DHT22;68429;50.958;3.592;2023-03-19T10:06:27;16.00;99.90
54168;DHT22;68429;50.958;3.592;2023-03-19T10:12:09;15.70;99.90
54168;DHT22;68429;50.958;3.592;2023-03-19T10:15:00;16.20;99.90
54168;DHT22;68429;50.958;3.592;2023-03-19T10:17:36;16.20;99.90
54168;DHT22;68429;50.958;3.592;2023-03-19T10:20:51;16.70;99.90
54168;DHT22;68429;50.958;3.592;2023-03-19T10:25:50;16.90;99.90
54168;DHT22;68429;50.958;3.592;2023-03-19T10:28:17;19.00;99.90
54168;DHT22;68429;50.958;3.592;2023-03-19T10:31:06;20.10;99.90
54168;DHT22;68429;50.958;3.592;2023-03-19T10:33:56;19.90;98.80
54168;DHT22;68429;50.958;3.592;2023-03-19T10:36:26;19.00;99.50
54168;DHT22;68429;50.958;3.592;2023-03-19T10:38:55;18.20;99.90
54168;DHT22;68429;50.958;3.592;2023-03-19T10:41:41;16.60;99.90
54168;DHT22;68429;50.958;3.592;2023-03-19T10:44:30;16.80;99.90
54168;DHT22;68429;50.958;3.592;2023-03-19T10:47:08;16.50;99.90
54168;DHT22;68429;50.958;3.592;2023-03-19T10:49:35;15.90;99.90
54168;DHT22;68429;50.958;3.592;2023-03-19T10:52:01;15.10;99.90
54168;DHT22;68429;50.958;3.592;2023-03-19T10:54:27;14.90;99.90
54168;DHT22;68429;50.958;3.592;2023-03-19T10:56:57;15.30;99.90
54168;DHT22;68429;50.958;3.592;2023-03-19T10:59:32;15.20;99.90
54168;DHT22;68429;50.958;3.592;2023-03-19T11:02:22;14.80;99.90
54168;DHT22;68429;50.958;3.592;2023-03-19T11:07:43;15.10;99.90
54168;DHT22;68429;50.958;3.592;2023-03-19T11:10:14;14.60;99.90
54168;DHT22;68429;50.958;3.592;2023-03-19T11:12:40;14.20;99.90
54168;DHT22;68429;50.958;3.592;2023-03-19T11:15:22;13.80;99.90
54168;DHT22;68429;50.958;3.592;2023-03-19T11:18:14;13.50;99.90
54168;DHT22;68429;50.958;3.592;2023-03-19T11:20:40;13.10;99.90
54168;DHT22;68429;50.958;3.592;2023-03-19T11:23:16;12.80;99.90
54168;DHT22;68429;50.958;3.592;2023-03-19T11:25:53;12.40;99.90
54168;DHT22;68429;50.958;3.592;2023-03-19T11:28:24;12.10;99.90
54168;DHT22;68429;50.958;3.592;2023-03-19T11:31:14;12.10;99.90
54168;DHT22;68429;50.958;3.592;2023-03-19T11:34:30;12.10;99.90
54168;DHT22;68429;50.958;3.592;2023-03-19T11:50:16;11.90;99.90
54168;DHT22;68429;50.958;3.592;2023-03-19T11:53:18;12.10;99.90
54168;DHT22;68429;50.958;3.592;2023-03-19T11:56:01;12.00;99.90
54168;DHT22;68429;50.958;3.592;2023-03-19T12:04:20;12.70;99.90
54168;DHT22;68429;50.958;3.592;2023-03-19T12:17:45;15.80;99.90
54168;DHT22;68429;50.958;3.592;2023-03-19T12:23:31;15.70;99.90
54168;DHT22;68429;50.958;3.592;2023-03-19T12:26:06;15.20;99.90
54168;DHT22;68429;50.958;3.592;2023-03-19T12:28:45;14.80;99.90
54168;DHT22;68429;50.958;3.592;2023-03-19T12:31:38;14.60;99.90
54168;DHT22;68429;50.958;3.592;2023-03-19T12:37:25;13.40;99.90
54168;DHT22;68429;50.958;3.592;2023-03-19T12:43:09;12.40;99.90
54168;DHT22;68429;50.958;3.592;2023-03-19T12:45:44;12.20;99.90
54168;DHT22;68429;50.958;3.592;2023-03-19T12:48:22;12.10;99.90
54168;DHT22;68429;50.958;3.592;2023-03-19T12:50:51;12.10;99.90
54168;DHT22;68429;50.958;3.592;2023-03-19T13:01:56;11.40;99.90
54168;DHT22;68429;50.958;3.592;2023-03-19T13:04:26;11.40;99.90
54168;DHT22;68429;50.958;3.592;2023-03-19T13:07:05;11.30;99.90
54168;DHT22;68429;50.958;3.592;2023-03-19T13:09:39;11.40;99.90
54168;DHT22;68429;50.958;3.592;2023-03-19T13:12:21;11.40;99.90
54168;DHT22;68429;50.958;3.592;2023-03-19T13:14:56;11.50;99.90
54168;DHT22;68429;50.958;3.592;2023-03-19T13:17:38;11.70;99.90
54168;DHT22;68429;50.958;3.592;2023-03-19T13:20:26;11.80;99.90
54168;DHT22;68429;50.958;3.592;2023-03-19T13:22:59;11.60;99.90
54168;DHT22;68429;50.958;3.592;2023-03-19T13:25:36;11.50;99.90
54168;DHT22;68429;50.958;3.592;2023-03-19T13:28:08;11.40;99.90
54168;DHT22;68429;50.958;3.592;2023-03-19T13:30:35;11.40;99.90
54168;DHT22;68429;50.958;3.592;2023-03-19T13:33:15;11.10;99.90
54168;DHT22;68429;50.958;3.592;2023-03-19T13:35:51;10.70;99.90
54168;DHT22;68429;50.958;3.592;2023-03-19T13:40:51;10.40;99.90
54168;DHT22;68429;50.958;3.592;2023-03-19T13:59:30;10.00;99.90
54168;DHT22;68429;50.958;3.592;2023-03-19T14:02:44;10.20;99.90
54168;DHT22;68429;50.958;3.592;2023-03-19T14:05:14;10.30;99.90
54168;DHT22;68429;50.958;3.592;2023-03-19T14:07:49;10.40;99.90
54168;DHT22;68429;50.958;3.592;2023-03-19T14:10:18;10.50;99.90
54168;DHT22;68429;50.958;3.592;2023-03-19T14:12:45;10.60;99.90
54168;DHT22;68429;50.958;3.592;2023-03-19T14:15:23;10.60;99.90
54168;DHT22;68429;50.958;3.592;2023-03-19T14:20:26;10.90;99.90
54168;DHT22;68429;50.958;3.592;2023-03-19T14:23:01;11.10;99.90
54168;DHT22;68429;50.958;3.592;2023-03-19T14:28:17;11.20;99.90
54168;DHT22;68429;50.958;3.592;2023-03-19T14:30:46;11.40;99.90
54168;DHT22;68429;50.958;3.592;2023-03-19T14:33:41;11.60;99.90
54168;DHT22;68429;50.958;3.592;2023-03-19T14:36:12;11.60;99.90
54168;DHT22;68429;50.958;3.592;2023-03-19T14:38:50;11.20;99.90
54168;DHT22;68429;50.958;3.592;2023-03-19T14:41:20;11.10;99.90
54168;DHT22;68429;50.958;3.592;2023-03-19T14:46:55;11.20;99.90
54168;DHT22;68429;50.958;3.592;2023-03-19T14:55:01;10.70;99.90
54168;DHT22;68429;50.958;3.592;2023-03-19T14:57:30;10.70;99.90
54168;DHT22;68429;50.958;3.592;2023-03-19T14:59:57;10.40;99.90
54168;DHT22;68429;50.958;3.592;2023-03-19T15:02:52;10.50;99.90
54168;DHT22;68429;50.958;3.592;2023-03-19T15:05:29;10.60;99.90
54168;DHT22;68429;50.958;3.592;2023-03-19T15:08:04;10.70;99.90
54168;DHT22;68429;50.958;3.592;2023-03-19T15:10:43;10.80;99.90
54168;DHT22;68429;50.958;3.592;2023-03-19T15:13:34;10.80;99.90
54168;DHT22;68429;50.958;3.592;2023-03-19T15:16:15;10.60;99.90
54168;DHT22;68429;50.958;3.592;2023-03-19T15:18:43;10.60;99.90
54168;DHT22;68429;50.958;3.592;2023-03-19T15:21:09;10.60;99.90
54168;DHT22;68429;50.958;3.592;2023-03-19T15:23:36;10.90;99.90
54168;DHT22;68429;50.958;3.592;2023-03-19T15:26:03;11.00;99.90
54168;DHT22;68429;50.958;3.592;2023-03-19T15:28:46;10.90;99.90
54168;DHT22;68429;50.958;3.592;2023-03-19T15:31:13;10.90;99.90
54168;DHT22;68429;50.958;3.592;2023-03-19T15:33:40;10.70;99.90
54168;DHT22;68429;50.958;3.592;2023-03-19T15:36:22;10.50;99.90
54168;DHT22;68429;50.958;3.592;2023-03-19T15:39:04;10.50;99.90
54168;DHT22;68429;50.958;3.592;2023-03-19T15:41:35;10.50;99.90
54168;DHT22;68429;50.958;3.592;2023-03-19T15:44:06;10.50;99.90
54168;DHT22;68429;50.958;3.592;2023-03-19T15:46:36;10.40;99.90
54168;DHT22;68429;50.958;3.592;2023-03-19T15:49:10;10.20;99.90
54168;DHT22;68429;50.958;3.592;2023-03-19T15:51:38;10.10;99.90
54168;DHT22;68429;50.958;3.592;2023-03-19T15:54:04;10.00;99.90
54168;DHT22;68429;50.958;3.592;2023-03-19T15:56:30;10.10;99.90
54168;DHT22;68429;50.958;3.592;2023-03-19T15:58:57;10.00;99.90
54168;DHT22;68429;50.958;3.592;2023-03-19T16:01:24;10.00;99.90
54168;DHT22;68429;50.958;3.592;2023-03-19T16:03:54;9.90;99.90
54168;DHT22;68429;50.958;3.592;2023-03-19T16:06:30;9.90;99.90
54168;DHT22;68429;50.958;3.592;2023-03-19T16:11:54;9.80;99.90
54168;DHT22;68429;50.958;3.592;2023-03-19T16:14:26;9.70;99.90
54168;DHT22;68429;50.958;3.592;2023-03-19T16:16:59;9.50;99.90
54168;DHT22;68429;50.958;3.592;2023-03-19T16:19:30;9.50;99.90
54168;DHT22;68429;50.958;3.592;2023-03-19T16:21:56;9.50;99.90
54168;DHT22;68429;50.958;3.592;2023-03-19T16:24:33;9.50;99.90
54168;DHT22;68429;50.958;3.592;2023-03-19T16:27:09;9.40;99.90
54168;DHT22;68429;50.958;3.592;2023-03-19T16:29:39;9.50;99.90
54168;DHT22;68429;50.958;3.592;2023-03-19T16:34:53;9.50;99.90
54168;DHT22;68429;50.958;3.592;2023-03-19T16:42:52;9.70;99.90
54168;DHT22;68429;50.958;3.592;2023-03-19T16:45:30;9.80;99.90
54168;DHT22;68429;50.958;3.592;2023-03-19T16:47:57;9.90;99.90
54168;DHT22;68429;50.958;3.592;2023-03-19T16:52:55;9.90;99.90
54168;DHT22;68429;50.958;3.592;2023-03-19T16:57:55;9.90;99.90
54168;DHT22;68429;50.958;3.592;2023-03-19T17:00:21;9.80;99.90
54168;DHT22;68429;50.958;3.592;2023-03-19T17:02:47;9.90;99.90
54168;DHT22;68429;50.958;3.592;2023-03-19T17:05:14;9.90;99.90
54168;DHT22;68429;50.958;3.592;2023-03-19T17:07:40;9.90;99.90
54168;DHT22;68429;50.958;3.592;2023-03-19T17:10:11;9.90;99.90
54168;DHT22;68429;50.958;3.592;2023-03-19T17:12:37;9.80;99.90
54168;DHT22;68429;50.958;3.592;2023-03-19T17:15:04;9.80;99.90
54168;DHT22;68429;50.958;3.592;2023-03-19T17:17:30;9.90;99.90
54168;DHT22;68429;50.958;3.592;2023-03-19T17:19:55;9.80;99.90
54168;DHT22;68429;50.958;3.592;2023-03-19T17:22:21;9.80;99.90
54168;DHT22;68429;50.958;3.592;2023-03-19T17:24:52;9.70;99.90
54168;DHT22;68429;50.958;3.592;2023-03-19T17:27:17;9.70;99.90
54168;DHT22;68429;50.958;3.592;2023-03-19T17:29:43;9.70;99.90
54168;DHT22;68429;50.958;3.592;2023-03-19T17:32:16;9.70;99.90
54168;DHT22;68429;50.958;3.592;2023-03-19T17:34:43;9.80;99.90
54168;DHT22;68429;50.958;3.592;2023-03-19T17:37:11;9.70;99.90
54168;DHT22;68429;50.958;3.592;2023-03-19T17:39:38;9.80;99.90
54168;DHT22;68429;50.958;3.592;2023-03-19T17:42:16;9.80;99.90
54168;DHT22;68429;50.958;3.592;2023-03-19T17:44:43;9.70;99.90
54168;DHT22;68429;50.958;3.592;2023-03-19T17:47:09;9.80;99.90
54168;DHT22;68429;50.958;3.592;2023-03-19T17:49:35;9.80;99.90